createdAt,value
2022-12-25T00:02:06.924Z,67.18
2022-12-25T00:04:35.144Z,66.25
2022-12-25T00:07:03.170Z,66.46
2022-12-25T00:09:31.343Z,65.98
2022-12-25T00:11:59.449Z,66.15
2022-12-25T00:14:27.537Z,66.18
2022-12-25T00:16:55.592Z,65.45
2022-12-25T00:19:24.923Z,66.13
2022-12-25T00:21:52.959Z,65.42
2022-12-25T00:24:20.982Z,65.68
2022-12-25T00:26:49.177Z,65.52
2022-12-25T00:29:17.260Z,65.14
2022-12-25T00:31:45.536Z,65.40
2022-12-25T00:34:13.553Z,65.25
2022-12-25T00:36:43.039Z,65.31
2022-12-25T00:39:11.377Z,65.76
2022-12-25T00:41:57.226Z,66.15
2022-12-25T00:44:25.329Z,65.14
2022-12-25T00:46:53.540Z,65.53
2022-12-25T00:49:23.827Z,65.81
2022-12-25T00:51:53.760Z,65.09
2022-12-25T00:54:22.726Z,65.73
2022-12-25T00:56:50.717Z,65.96
2022-12-25T00:59:18.833Z,66.28
2022-12-25T01:01:47.122Z,65.98
2022-12-25T01:04:15.298Z,66.23
2022-12-25T01:06:43.361Z,66.20
2022-12-25T01:09:30.151Z,66.95
2022-12-25T01:11:58.134Z,66.40
2022-12-25T01:14:26.160Z,66.61
2022-12-25T01:16:54.246Z,67.26
2022-12-25T01:19:22.374Z,67.26
2022-12-25T01:21:50.547Z,67.26
2022-12-25T01:24:20.026Z,67.91
2022-12-25T01:26:48.255Z,67.77
2022-12-25T01:29:16.358Z,67.46
2022-12-25T01:31:44.773Z,68.02
2022-12-25T01:34:12.953Z,67.84
2022-12-25T01:36:41.011Z,67.59
2022-12-25T01:39:09.123Z,68.28
2022-12-25T01:41:38.616Z,68.20
2022-12-25T01:44:09.473Z,68.25
2022-12-25T01:46:37.924Z,68.39
2022-12-25T01:49:09.436Z,67.61
2022-12-25T01:51:41.193Z,67.59
2022-12-25T01:54:14.072Z,67.55
2022-12-25T01:56:46.548Z,67.40
2022-12-25T01:59:18.678Z,68.00
2022-12-25T02:01:47.584Z,68.59
2022-12-25T02:04:21.332Z,68.92
2022-12-25T02:06:52.484Z,68.20
2022-12-25T02:09:20.467Z,68.82
2022-12-25T02:11:59.198Z,68.16
2022-12-25T02:14:31.167Z,68.85
2022-12-25T02:17:08.287Z,68.00
2022-12-25T02:20:04.092Z,67.59
2022-12-25T02:22:43.361Z,68.59
2022-12-25T02:25:31.696Z,68.70
2022-12-25T02:28:14.304Z,68.96
2022-12-25T02:30:45.687Z,68.21
2022-12-25T02:33:35.177Z,68.65
2022-12-25T02:36:08.587Z,68.54
2022-12-25T02:39:01.009Z,69.25
2022-12-25T02:41:31.727Z,69.34
2022-12-25T02:44:22.104Z,69.01
2022-12-25T02:47:08.528Z,69.31
2022-12-25T02:49:55.183Z,68.57
2022-12-25T02:52:43.072Z,68.55
2022-12-25T02:55:32.077Z,68.06
2022-12-25T02:58:34.529Z,68.70
2022-12-25T03:01:25.139Z,68.61
2022-12-25T03:04:15.455Z,69.37
2022-12-25T03:06:58.247Z,68.92
2022-12-25T03:09:45.584Z,68.89
2022-12-25T03:12:23.852Z,69.46
2022-12-25T03:15:09.679Z,68.80
2022-12-25T03:17:39.233Z,68.68
2022-12-25T03:20:27.228Z,69.64
2022-12-25T03:23:13.667Z,68.59
2022-12-25T03:25:59.645Z,68.39
2022-12-25T03:28:27.901Z,69.15
2022-12-25T03:31:13.757Z,68.21
2022-12-25T03:34:23.655Z,68.51
2022-12-25T03:37:10.027Z,68.49
2022-12-25T03:40:04.213Z,68.85
2022-12-25T03:42:56.681Z,68.50
2022-12-25T03:45:49.143Z,69.03
2022-12-25T03:48:36.317Z,69.09
2022-12-25T03:51:28.838Z,68.06
2022-12-25T03:54:20.421Z,68.57
2022-12-25T03:57:06.907Z,67.51
2022-12-25T03:59:52.243Z,68.22
2022-12-25T04:02:37.850Z,68.37
2022-12-25T04:05:24.080Z,68.65
2022-12-25T04:08:11.134Z,68.13
2022-12-25T04:10:56.486Z,68.27
2022-12-25T04:13:41.645Z,68.65
2022-12-25T04:16:27.199Z,68.86
2022-12-25T04:19:12.904Z,68.37
2022-12-25T04:21:58.577Z,68.40
2022-12-25T04:24:45.311Z,68.82
2022-12-25T04:27:30.845Z,69.14
2022-12-25T04:30:16.444Z,68.76
2022-12-25T04:33:13.689Z,68.31
2022-12-25T04:35:59.229Z,69.13
2022-12-25T04:38:27.311Z,68.22
2022-12-25T04:40:56.856Z,68.40
2022-12-25T04:43:25.505Z,68.71
2022-12-25T04:45:54.849Z,68.51
2022-12-25T04:48:23.402Z,68.12
2022-12-25T04:50:51.545Z,67.86
2022-12-25T04:53:20.429Z,68.66
2022-12-25T04:55:48.475Z,68.48
2022-12-25T04:58:17.819Z,68.15
2022-12-25T05:00:45.871Z,68.49
2022-12-25T05:03:14.125Z,68.04
2022-12-25T05:05:42.271Z,67.83
2022-12-25T05:08:10.257Z,68.33
2022-12-25T05:10:41.060Z,67.55
2022-12-25T05:13:09.143Z,67.94
2022-12-25T05:15:40.729Z,67.38
2022-12-25T05:18:08.876Z,67.37
2022-12-25T05:20:40.297Z,67.75
2022-12-25T05:23:10.258Z,67.60
2022-12-25T05:25:40.885Z,67.63
2022-12-25T05:28:09.267Z,68.00
2022-12-25T05:30:38.736Z,68.06
2022-12-25T05:33:06.843Z,67.51
2022-12-25T05:35:37.083Z,67.48
2022-12-25T05:38:05.257Z,67.85
2022-12-25T05:40:33.499Z,68.18
2022-12-25T05:43:01.677Z,68.26
2022-12-25T05:45:29.798Z,68.88
2022-12-25T05:47:59.296Z,68.61
2022-12-25T05:50:27.381Z,69.09
2022-12-25T05:52:55.484Z,68.66
2022-12-25T05:55:23.522Z,68.98
2022-12-25T05:57:51.633Z,69.13
2022-12-25T06:00:20.960Z,69.12
2022-12-25T06:02:49.159Z,69.19
2022-12-25T06:05:18.713Z,69.46
2022-12-25T06:07:46.964Z,69.13
2022-12-25T06:10:15.148Z,69.10
2022-12-25T06:12:43.131Z,69.06
2022-12-25T06:15:11.752Z,68.80
2022-12-25T06:17:39.815Z,69.03
2022-12-25T06:20:09.217Z,69.08
2022-12-25T06:22:38.599Z,69.08
2022-12-25T06:25:08.570Z,69.49
2022-12-25T06:27:36.708Z,69.45
2022-12-25T06:30:05.518Z,69.44
2022-12-25T06:32:33.550Z,69.16
2022-12-25T06:35:01.501Z,68.99
2022-12-25T06:37:29.587Z,69.06
2022-12-25T06:39:59.004Z,69.25
2022-12-25T06:42:27.187Z,69.60
2022-12-25T06:44:55.237Z,69.25
2022-12-25T06:47:23.299Z,69.59
2022-12-25T06:49:51.261Z,69.00
2022-12-25T06:52:19.259Z,68.79
2022-12-25T06:54:47.906Z,69.07
2022-12-25T06:57:17.300Z,69.13
2022-12-25T06:59:49.799Z,69.13
2022-12-25T07:02:24.346Z,69.33
2022-12-25T07:04:53.687Z,69.55
2022-12-25T07:07:23.733Z,69.41
2022-12-25T07:09:51.934Z,69.28
2022-12-25T07:12:23.780Z,69.50
2022-12-25T07:14:54.651Z,69.45
2022-12-25T07:17:23.975Z,69.76
2022-12-25T07:19:52.588Z,69.36
2022-12-25T07:22:20.751Z,69.73
2022-12-25T07:24:48.863Z,69.01
2022-12-25T07:27:16.949Z,69.50
2022-12-25T07:29:46.431Z,70.26
2022-12-25T07:32:14.552Z,69.71
2022-12-25T07:34:42.600Z,69.67
2022-12-25T07:37:10.744Z,70.38
2022-12-25T07:39:38.691Z,69.97
2022-12-25T07:42:08.148Z,70.04
2022-12-25T07:44:36.409Z,70.46
2022-12-25T07:47:06.046Z,70.49
2022-12-25T07:49:34.085Z,69.84
2022-12-25T07:52:02.230Z,69.91
2022-12-25T07:54:30.234Z,69.57
2022-12-25T07:56:58.356Z,69.56
2022-12-25T07:59:26.555Z,69.43
2022-12-25T08:01:54.765Z,69.70
2022-12-25T08:04:24.448Z,69.63
2022-12-25T08:06:52.463Z,69.04
2022-12-25T08:09:20.504Z,68.87
2022-12-25T08:11:48.751Z,69.25
2022-12-25T08:14:16.865Z,68.86
2022-12-25T08:16:46.567Z,68.69
2022-12-25T08:19:15.651Z,68.29
2022-12-25T08:21:45.027Z,68.26
2022-12-25T08:24:13.129Z,68.48
2022-12-25T08:26:41.269Z,68.20
2022-12-25T08:29:10.672Z,68.85
2022-12-25T08:31:45.760Z,68.96
2022-12-25T08:34:14.334Z,68.78
2022-12-25T08:36:42.405Z,69.10
2022-12-25T08:39:11.926Z,69.14
2022-12-25T08:41:40.434Z,68.69
2022-12-25T08:44:08.869Z,68.82
2022-12-25T08:46:37.339Z,68.61
2022-12-25T08:49:05.605Z,68.71
2022-12-25T08:51:34.394Z,68.36
2022-12-25T08:54:02.528Z,69.38
2022-12-25T08:56:32.702Z,69.49
2022-12-25T08:59:00.713Z,69.13
2022-12-25T09:01:28.857Z,69.65
2022-12-25T09:03:56.954Z,69.11
2022-12-25T09:06:24.941Z,69.21
2022-12-25T09:08:52.997Z,69.17
2022-12-25T09:11:21.889Z,69.70
2022-12-25T09:13:51.499Z,69.07
2022-12-25T09:16:22.362Z,69.18
2022-12-25T09:18:51.151Z,69.03
2022-12-25T09:21:20.354Z,68.84
2022-12-25T09:23:48.609Z,68.59
2022-12-25T09:26:18.675Z,68.36
2022-12-25T09:28:51.883Z,68.60
2022-12-25T09:31:23.820Z,68.03
2022-12-25T09:33:52.677Z,67.95
2022-12-25T09:36:23.496Z,67.99
2022-12-25T09:38:51.765Z,67.36
2022-12-25T09:41:28.906Z,67.73
2022-12-25T09:44:04.111Z,67.86
2022-12-25T09:46:41.246Z,68.06
2022-12-25T09:49:20.628Z,67.23
2022-12-25T09:51:54.469Z,67.10
2022-12-25T09:54:27.954Z,66.71
2022-12-25T09:56:55.975Z,67.09
2022-12-25T09:59:26.280Z,66.89
2022-12-25T10:02:20.667Z,66.52
2022-12-25T10:05:05.984Z,66.22
2022-12-25T10:07:42.159Z,66.14
2022-12-25T10:10:25.410Z,66.22
2022-12-25T10:13:01.084Z,66.64
2022-12-25T10:15:39.214Z,66.03
2022-12-25T10:18:33.414Z,66.03
2022-12-25T10:21:05.688Z,66.10
2022-12-25T10:23:40.709Z,66.08
2022-12-25T10:26:15.738Z,65.80
2022-12-25T10:28:46.189Z,65.30
2022-12-25T10:31:21.279Z,65.63
2022-12-25T10:33:52.855Z,65.87
2022-12-25T10:36:24.415Z,65.85
2022-12-25T10:38:52.911Z,65.75
2022-12-25T10:41:34.379Z,65.50
2022-12-25T10:44:12.938Z,65.47
2022-12-25T10:46:42.510Z,65.36
2022-12-25T10:49:17.651Z,65.06
2022-12-25T10:51:45.882Z,65.13
2022-12-25T10:54:24.895Z,65.34
2022-12-25T10:56:58.037Z,64.73
2022-12-25T10:59:27.851Z,64.51
2022-12-25T11:01:57.410Z,65.26
2022-12-25T11:04:29.568Z,65.18
2022-12-25T11:07:00.276Z,64.45
2022-12-25T11:09:28.962Z,65.02
2022-12-25T11:11:57.466Z,64.25
2022-12-25T11:14:27.729Z,64.37
2022-12-25T11:16:55.977Z,63.70
2022-12-25T11:19:31.208Z,63.82
2022-12-25T11:22:01.277Z,63.54
2022-12-25T11:24:30.937Z,63.31
2022-12-25T11:27:00.894Z,63.01
2022-12-25T11:29:37.889Z,63.27
2022-12-25T11:32:12.809Z,63.66
2022-12-25T11:34:46.680Z,62.58
2022-12-25T11:37:19.100Z,62.13
2022-12-25T11:39:47.412Z,62.68
2022-12-25T11:42:21.012Z,62.07
2022-12-25T11:44:54.403Z,62.23
2022-12-25T11:47:27.360Z,61.74
2022-12-25T11:50:03.088Z,60.90
2022-12-25T11:52:37.995Z,61.49
2022-12-25T11:55:16.358Z,60.83
2022-12-25T11:57:47.944Z,61.02
2022-12-25T12:00:17.716Z,60.75
2022-12-25T12:02:50.106Z,60.43
2022-12-25T12:05:25.944Z,60.28
2022-12-25T12:08:00.118Z,59.43
2022-12-25T12:10:44.026Z,60.10
2022-12-25T12:13:26.536Z,59.45
2022-12-25T12:15:55.065Z,60.01
2022-12-25T12:18:25.089Z,59.89
2022-12-25T12:21:02.857Z,59.37
2022-12-25T12:23:33.061Z,59.85
2022-12-25T12:26:01.596Z,59.65
2022-12-25T12:28:37.654Z,59.42
2022-12-25T12:31:08.518Z,60.04
2022-12-25T12:33:39.064Z,59.43
2022-12-25T12:36:14.155Z,58.98
2022-12-25T12:38:44.717Z,58.30
2022-12-25T12:41:15.515Z,59.23
2022-12-25T12:43:46.840Z,58.50
2022-12-25T12:46:23.010Z,58.76
2022-12-25T12:49:10.291Z,58.27
2022-12-25T12:51:40.091Z,57.98
2022-12-25T12:54:28.108Z,57.87
2022-12-25T12:56:58.252Z,57.94
2022-12-25T12:59:27.286Z,57.57
2022-12-25T13:02:16.953Z,57.58
2022-12-25T13:04:56.018Z,57.69
2022-12-25T13:07:44.207Z,58.19
2022-12-25T13:10:24.449Z,57.83
2022-12-25T13:12:57.936Z,57.95
2022-12-25T13:15:28.694Z,57.52
2022-12-25T13:18:02.319Z,57.44
2022-12-25T13:20:40.047Z,57.45
2022-12-25T13:23:24.653Z,56.74
2022-12-25T13:25:56.846Z,56.64
2022-12-25T13:28:29.824Z,56.98
2022-12-25T13:31:06.949Z,56.34
2022-12-25T13:33:35.849Z,57.00
2022-12-25T13:36:04.349Z,56.87
2022-12-25T13:38:34.208Z,56.10
2022-12-25T13:41:19.656Z,56.50
2022-12-25T13:43:50.028Z,56.67
2022-12-25T13:46:26.396Z,56.34
2022-12-25T13:48:59.790Z,55.46
2022-12-25T13:51:29.911Z,56.50
2022-12-25T13:54:06.644Z,56.20
2022-12-25T13:56:36.199Z,56.25
2022-12-25T13:59:05.610Z,56.50
2022-12-25T14:01:33.807Z,56.77
2022-12-25T14:04:02.146Z,55.99
2022-12-25T14:06:33.069Z,55.79
2022-12-25T14:09:01.309Z,56.01
2022-12-25T14:11:32.376Z,55.63
2022-12-25T14:14:03.806Z,55.80
2022-12-25T14:16:32.303Z,56.51
2022-12-25T14:19:03.510Z,56.48
2022-12-25T14:21:34.647Z,56.39
2022-12-25T14:24:02.830Z,56.11
2022-12-25T14:26:34.717Z,56.71
2022-12-25T14:29:16.889Z,56.39
2022-12-25T14:31:46.942Z,56.17
2022-12-25T14:34:18.693Z,56.88
2022-12-25T14:36:50.845Z,56.19
2022-12-25T14:39:29.570Z,56.79
2022-12-25T14:41:59.301Z,56.82
2022-12-25T14:44:33.362Z,57.02
2022-12-25T14:47:06.860Z,56.94
2022-12-25T14:49:35.167Z,56.70
2022-12-25T14:52:11.171Z,57.16
2022-12-25T14:54:39.461Z,56.87
2022-12-25T14:57:16.165Z,57.34
2022-12-25T14:59:44.303Z,56.53
2022-12-25T15:02:19.999Z,56.89
2022-12-25T15:04:48.263Z,57.32
2022-12-25T15:07:31.148Z,57.15
2022-12-25T15:10:36.410Z,56.70
2022-12-25T15:12:48.778Z,56.46
2022-12-25T15:15:17.030Z,57.63
2022-12-25T15:17:45.132Z,57.58
2022-12-25T15:20:14.602Z,56.58
2022-12-25T15:23:02.823Z,57.31
2022-12-25T15:25:31.816Z,57.10
2022-12-25T15:28:01.561Z,57.39
2022-12-25T15:30:30.554Z,57.80
2022-12-25T15:32:58.585Z,57.66
2022-12-25T15:35:26.684Z,57.27
2022-12-25T15:37:54.708Z,56.83
2022-12-25T15:40:22.875Z,57.18
2022-12-25T15:42:51.276Z,57.14
2022-12-25T15:45:24.644Z,57.48
2022-12-25T15:47:53.101Z,57.50
2022-12-25T15:50:23.150Z,57.44
2022-12-25T15:52:51.647Z,57.57
2022-12-25T15:55:19.851Z,57.40
2022-12-25T15:57:49.458Z,58.19
2022-12-25T16:00:22.666Z,57.69
2022-12-25T16:02:52.289Z,58.31
2022-12-25T16:05:20.883Z,58.57
2022-12-25T16:07:49.150Z,58.26
2022-12-25T16:10:19.493Z,58.11
2022-12-25T16:12:48.024Z,58.51
2022-12-25T16:15:16.976Z,58.01
2022-12-25T16:17:45.223Z,58.28
2022-12-25T16:20:15.402Z,57.96
2022-12-25T16:22:47.217Z,59.02
2022-12-25T16:25:17.739Z,58.16
2022-12-25T16:27:46.262Z,58.08
2022-12-25T16:30:16.530Z,57.88
2022-12-25T16:32:45.415Z,58.97
2022-12-25T16:35:14.900Z,57.99
2022-12-25T16:37:43.093Z,58.55
2022-12-25T16:40:11.946Z,58.21
2022-12-25T16:42:40.409Z,58.44
2022-12-25T16:45:09.387Z,57.92
2022-12-25T16:47:37.835Z,58.78
2022-12-25T16:50:08.521Z,57.55
2022-12-25T16:52:37.940Z,58.34
2022-12-25T16:55:06.718Z,58.77
2022-12-25T16:57:35.153Z,58.91
2022-12-25T17:00:03.467Z,58.38
2022-12-25T17:02:31.873Z,58.94
2022-12-25T17:05:00.520Z,59.09
2022-12-25T17:07:28.681Z,58.83
2022-12-25T17:09:58.252Z,59.04
2022-12-25T17:12:26.400Z,59.02
2022-12-25T17:14:54.799Z,59.16
2022-12-25T17:17:23.134Z,58.40
2022-12-25T17:19:51.317Z,59.44
2022-12-25T17:22:19.451Z,59.14
2022-12-25T17:24:47.500Z,59.81
2022-12-25T17:27:16.997Z,59.45
2022-12-25T17:29:47.237Z,59.92
2022-12-25T17:32:15.418Z,60.68
2022-12-25T17:34:43.429Z,60.14
2022-12-25T17:37:11.417Z,60.90
2022-12-25T17:39:39.715Z,61.35
2022-12-25T17:42:07.725Z,60.92
2022-12-25T17:44:37.195Z,61.29
2022-12-25T17:47:05.342Z,61.94
2022-12-25T17:49:33.362Z,62.18
2022-12-25T17:52:01.407Z,62.53
2022-12-25T17:54:29.753Z,62.25
2022-12-25T17:56:57.846Z,62.49
2022-12-25T17:59:29.470Z,63.07
2022-12-25T18:02:01.967Z,63.02
2022-12-25T18:04:30.442Z,62.71
2022-12-25T18:06:58.451Z,62.78
2022-12-25T18:09:26.447Z,62.97
2022-12-25T18:11:54.484Z,62.73
2022-12-25T18:14:22.859Z,62.56
2022-12-25T18:16:50.824Z,62.84
2022-12-25T18:19:20.473Z,62.98
2022-12-25T18:21:48.589Z,63.15
2022-12-25T18:24:16.645Z,63.38
2022-12-25T18:26:45.637Z,63.16
2022-12-25T18:29:13.756Z,63.16
2022-12-25T18:31:41.888Z,63.10
2022-12-25T18:34:09.974Z,63.79
2022-12-25T18:36:39.427Z,63.81
2022-12-25T18:39:07.798Z,63.67
2022-12-25T18:41:56.232Z,64.15
2022-12-25T18:44:24.283Z,63.79
2022-12-25T18:46:52.738Z,63.85
2022-12-25T18:49:20.986Z,63.55
2022-12-25T18:51:51.509Z,63.36
2022-12-25T18:54:19.622Z,63.33
2022-12-25T18:56:52.912Z,63.27
2022-12-25T18:59:21.813Z,62.73
2022-12-25T19:01:49.900Z,62.85
2022-12-25T19:04:18.511Z,62.82
2022-12-25T19:06:46.561Z,62.61
2022-12-25T19:09:16.148Z,63.09
2022-12-25T19:11:46.761Z,62.86
2022-12-25T19:14:15.892Z,62.85
2022-12-25T19:16:44.252Z,63.44
2022-12-25T19:19:13.126Z,63.34
2022-12-25T19:21:41.195Z,63.89
2022-12-25T19:24:09.344Z,63.89
2022-12-25T19:26:38.792Z,63.83
2022-12-25T19:29:06.876Z,63.49
2022-12-25T19:31:34.863Z,63.44
2022-12-25T19:34:02.922Z,63.47
2022-12-25T19:36:31.270Z,63.25
2022-12-25T19:38:59.619Z,63.69
2022-12-25T19:41:27.976Z,63.98
2022-12-25T19:43:57.508Z,64.05
2022-12-25T19:46:28.248Z,64.21
2022-12-25T19:48:56.958Z,64.32
2022-12-25T19:51:27.906Z,64.52
2022-12-25T19:53:56.428Z,64.45
2022-12-25T19:56:25.312Z,64.49
2022-12-25T19:58:54.879Z,64.47
2022-12-25T20:01:26.865Z,64.99
2022-12-25T20:03:55.276Z,64.83
2022-12-25T20:06:26.078Z,64.75
2022-12-25T20:08:56.261Z,65.03
2022-12-25T20:11:26.201Z,65.24
2022-12-25T20:13:55.067Z,65.12
2022-12-25T20:16:24.989Z,65.01
2022-12-25T20:18:53.944Z,64.71
2022-12-25T20:21:23.998Z,64.43
2022-12-25T20:23:53.653Z,64.24
2022-12-25T20:26:24.734Z,64.29
2022-12-25T20:28:53.383Z,64.23
2022-12-25T20:31:27.451Z,64.21
2022-12-25T20:33:58.452Z,64.02
2022-12-25T20:36:31.057Z,63.74
2022-12-25T20:39:02.691Z,63.62
2022-12-25T20:41:30.792Z,63.89
2022-12-25T20:43:59.140Z,63.94
2022-12-25T20:46:28.164Z,63.66
2022-12-25T20:48:57.629Z,63.65
2022-12-25T20:51:28.008Z,63.23
2022-12-25T20:53:56.446Z,63.19
2022-12-25T20:56:26.839Z,63.33
2022-12-25T20:58:56.121Z,63.22
2022-12-25T21:01:24.901Z,63.29
2022-12-25T21:03:54.586Z,62.79
2022-12-25T21:06:24.414Z,63.07
2022-12-25T21:08:52.836Z,62.81
2022-12-25T21:11:21.648Z,62.71
2022-12-25T21:13:50.508Z,62.75
2022-12-25T21:16:20.865Z,63.05
2022-12-25T21:18:50.258Z,62.92
2022-12-25T21:21:18.434Z,62.99
2022-12-25T21:23:48.101Z,62.85
2022-12-25T21:26:19.190Z,62.76
2022-12-25T21:28:47.622Z,62.65
2022-12-25T21:31:15.852Z,62.72
2022-12-25T21:33:52.234Z,63.13
2022-12-25T21:36:22.325Z,63.12
2022-12-25T21:38:56.267Z,63.27
2022-12-25T21:41:24.961Z,63.38
2022-12-25T21:43:53.221Z,63.29
2022-12-25T21:46:21.584Z,63.23
2022-12-25T21:48:50.230Z,63.00
2022-12-25T21:51:38.447Z,63.23
2022-12-25T21:54:08.929Z,63.14
2022-12-25T21:56:43.829Z,63.10
2022-12-25T21:59:14.535Z,62.50
2022-12-25T22:01:42.925Z,62.92
2022-12-25T22:04:11.642Z,62.69
2022-12-25T22:06:57.508Z,62.50
2022-12-25T22:09:27.555Z,63.09
2022-12-25T22:12:12.937Z,62.64
2022-12-25T22:14:56.309Z,62.95
2022-12-25T22:17:43.998Z,62.67
2022-12-25T22:20:14.435Z,62.89
2022-12-25T22:22:42.805Z,62.57
2022-12-25T22:25:13.571Z,62.62
2022-12-25T22:27:42.830Z,62.96
2022-12-25T22:30:13.335Z,63.20
2022-12-25T22:32:41.586Z,63.64
2022-12-25T22:35:11.079Z,63.35
2022-12-25T22:37:39.312Z,63.32
2022-12-25T22:40:09.179Z,63.26
2022-12-25T22:42:39.123Z,63.82
2022-12-25T22:45:07.926Z,64.02
2022-12-25T22:47:36.065Z,64.08
2022-12-25T22:50:04.379Z,64.25
2022-12-25T22:52:32.385Z,64.62
2022-12-25T22:55:00.601Z,64.60
2022-12-25T22:57:29.239Z,64.23
2022-12-25T22:59:58.912Z,63.53
2022-12-25T23:02:27.251Z,64.26
2022-12-25T23:04:55.499Z,64.35
2022-12-25T23:07:23.702Z,64.55
2022-12-25T23:09:51.865Z,66.05
2022-12-25T23:12:37.162Z,65.87
2022-12-25T23:15:07.999Z,66.17
2022-12-25T23:17:53.553Z,67.26
2022-12-25T23:20:41.503Z,67.06
2022-12-25T23:23:31.769Z,66.91
2022-12-25T23:26:16.447Z,66.14
2022-12-25T23:29:13.739Z,66.27
2022-12-25T23:31:44.272Z,66.56
2022-12-25T23:34:12.350Z,67.19
2022-12-25T23:36:40.394Z,67.70
2022-12-25T23:39:10.464Z,66.69
2022-12-25T23:41:39.707Z,67.34
2022-12-25T23:44:08.294Z,67.11
2022-12-25T23:46:36.496Z,66.11
2022-12-25T23:49:06.202Z,66.64
2022-12-25T23:51:36.782Z,66.62
2022-12-25T23:54:05.301Z,66.55
2022-12-25T23:56:33.761Z,66.15
2022-12-25T23:59:02.074Z,66.86
